createdAt,value
2023-05-18T00:00:57.040Z,4.75
2023-05-18T00:01:57.092Z,5.38
2023-05-18T00:02:57.199Z,5.67
2023-05-18T00:03:57.217Z,4.86
2023-05-18T00:04:57.231Z,4.63
2023-05-18T00:05:57.270Z,4.78
2023-05-18T00:06:57.348Z,4.71
2023-05-18T00:07:57.401Z,4.21
2023-05-18T00:08:57.520Z,3.93
2023-05-18T00:09:57.584Z,4.28
2023-05-18T00:10:57.672Z,4.70
2023-05-18T00:11:57.750Z,5.40
2023-05-18T00:12:57.787Z,5.98
2023-05-18T00:13:57.958Z,4.04
2023-05-18T00:14:57.901Z,4.87
2023-05-18T00:15:57.961Z,5.10
2023-05-18T00:16:58.012Z,4.05
2023-05-18T00:17:58.011Z,4.08
2023-05-18T00:18:58.153Z,4.88
2023-05-18T00:19:58.126Z,5.04
2023-05-18T00:20:58.150Z,4.30
2023-05-18T00:21:58.208Z,4.46
2023-05-18T00:22:58.171Z,4.70
2023-05-18T00:23:58.168Z,4.72
2023-05-18T00:24:58.213Z,4.39
2023-05-18T00:25:58.300Z,5.92
2023-05-18T00:26:58.301Z,4.49
2023-05-18T00:27:58.340Z,5.26
2023-05-18T00:28:58.373Z,5.67
2023-05-18T00:29:58.405Z,5.07
2023-05-18T00:30:58.471Z,4.73
2023-05-18T00:31:58.548Z,4.87
2023-05-18T00:32:58.555Z,5.21
2023-05-18T00:33:58.431Z,5.03
2023-05-18T00:34:58.729Z,5.46
2023-05-18T00:35:58.572Z,5.63
2023-05-18T00:36:58.605Z,4.52
2023-05-18T00:37:58.590Z,5.18
2023-05-18T00:38:58.628Z,5.14
2023-05-18T00:39:58.595Z,4.90
2023-05-18T00:40:58.612Z,5.20
2023-05-18T00:41:58.613Z,5.88
2023-05-18T00:42:58.619Z,5.07
2023-05-18T00:43:58.612Z,5.74
2023-05-18T00:44:58.661Z,5.49
2023-05-18T00:45:58.735Z,6.10
2023-05-18T00:46:58.710Z,5.90
2023-05-18T00:47:58.770Z,6.07
2023-05-18T00:48:58.754Z,6.17
2023-05-18T00:49:58.776Z,6.02
2023-05-18T00:50:58.730Z,6.26
2023-05-18T00:51:58.741Z,5.34
2023-05-18T00:52:58.763Z,5.41
2023-05-18T00:53:58.728Z,6.30
2023-05-18T00:54:59.190Z,6.72
2023-05-18T00:55:58.732Z,6.00
2023-05-18T00:56:58.743Z,5.86
2023-05-18T00:57:58.752Z,6.09
2023-05-18T00:58:58.763Z,4.72
2023-05-18T00:59:58.723Z,6.85
2023-05-18T01:00:58.791Z,6.06
2023-05-18T01:01:58.811Z,5.90
2023-05-18T01:02:58.988Z,6.40
2023-05-18T01:03:58.789Z,6.71
2023-05-18T01:04:59.140Z,6.28
2023-05-18T01:05:58.865Z,6.67
2023-05-18T01:06:58.817Z,7.07
2023-05-18T01:07:58.813Z,6.14
2023-05-18T01:08:58.838Z,5.78
2023-05-18T01:09:59.171Z,6.32
2023-05-18T01:10:58.843Z,6.40
2023-05-18T01:11:58.864Z,6.34
2023-05-18T01:12:58.808Z,6.57
2023-05-18T01:13:58.800Z,6.16
2023-05-18T01:14:59.164Z,7.19
2023-05-18T01:15:58.834Z,7.13
2023-05-18T01:16:58.819Z,7.18
2023-05-18T01:17:58.845Z,6.95
2023-05-18T01:18:58.812Z,6.79
2023-05-18T01:19:58.849Z,6.76
2023-05-18T01:20:58.824Z,5.96
2023-05-18T01:21:58.815Z,6.89
2023-05-18T01:22:58.820Z,6.75
2023-05-18T01:23:58.858Z,7.03
2023-05-18T01:24:59.185Z,6.79
2023-05-18T01:25:58.860Z,7.59
2023-05-18T01:26:58.893Z,7.58
2023-05-18T01:27:58.847Z,5.92
2023-05-18T01:28:58.866Z,7.02
2023-05-18T01:29:58.892Z,6.61
2023-05-18T01:30:58.937Z,6.16
2023-05-18T01:31:58.881Z,6.58
2023-05-18T01:32:58.939Z,7.08
2023-05-18T01:33:58.849Z,7.52
2023-05-18T01:34:58.856Z,7.43
2023-05-18T01:35:58.904Z,7.63
2023-05-18T01:36:58.895Z,7.66
2023-05-18T01:37:58.886Z,6.92
2023-05-18T01:38:58.929Z,7.75
2023-05-18T01:39:59.179Z,6.98
2023-05-18T01:40:58.943Z,6.31
2023-05-18T01:41:58.954Z,6.31
2023-05-18T01:42:58.956Z,7.13
2023-05-18T01:43:58.923Z,6.82
2023-05-18T01:44:58.972Z,8.48
2023-05-18T01:45:58.961Z,7.21
2023-05-18T01:46:58.942Z,8.03
2023-05-18T01:47:59.014Z,7.80
2023-05-18T01:48:59.003Z,7.86
2023-05-18T01:49:58.970Z,7.46
2023-05-18T01:50:58.978Z,8.30
2023-05-18T01:51:59.004Z,7.78
2023-05-18T01:52:59.019Z,8.47
2023-05-18T01:53:58.985Z,8.48
2023-05-18T01:54:59.004Z,7.93
2023-05-18T01:55:59.038Z,8.17
2023-05-18T01:56:59.000Z,8.75
2023-05-18T01:57:59.012Z,7.97
2023-05-18T01:58:59.035Z,8.36
2023-05-18T01:59:58.998Z,8.01
2023-05-18T02:00:59.012Z,7.95
2023-05-18T02:01:59.778Z,7.88
2023-05-18T02:02:59.117Z,8.16
2023-05-18T02:03:59.240Z,8.46
2023-05-18T02:04:58.999Z,7.92
2023-05-18T02:05:59.006Z,7.39
2023-05-18T02:06:59.033Z,8.14
2023-05-18T02:07:59.070Z,7.73
2023-05-18T02:08:59.037Z,8.49
2023-05-18T02:09:59.105Z,7.52
2023-05-18T02:10:59.074Z,8.42
2023-05-18T02:11:59.100Z,7.98
2023-05-18T02:12:59.088Z,9.21
2023-05-18T02:13:59.100Z,8.33
2023-05-18T02:14:59.174Z,8.40
2023-05-18T02:16:00.742Z,8.13
2023-05-18T02:16:59.166Z,7.50
2023-05-18T02:17:59.253Z,7.65
2023-05-18T02:18:59.217Z,7.79
2023-05-18T02:19:59.714Z,7.18
2023-05-18T02:20:59.210Z,7.11
2023-05-18T02:21:59.201Z,6.90
2023-05-18T02:22:59.253Z,6.88
2023-05-18T02:23:59.201Z,7.74
2023-05-18T02:24:59.272Z,7.53
2023-05-18T02:25:59.235Z,7.84
2023-05-18T02:26:59.239Z,8.19
2023-05-18T02:27:59.290Z,7.43
2023-05-18T02:28:59.363Z,6.65
2023-05-18T02:29:59.371Z,7.10
2023-05-18T02:30:59.318Z,7.52
2023-05-18T02:31:59.329Z,7.74
2023-05-18T02:32:59.373Z,6.98
2023-05-18T02:33:59.338Z,7.44
2023-05-18T02:34:59.414Z,7.61
2023-05-18T02:35:59.407Z,7.79
2023-05-18T02:36:59.431Z,7.27
2023-05-18T02:37:59.418Z,6.84
2023-05-18T02:38:59.479Z,8.16
2023-05-18T02:39:59.492Z,7.42
2023-05-18T02:40:59.549Z,7.57
2023-05-18T02:41:59.560Z,7.63
2023-05-18T02:42:59.559Z,7.86
2023-05-18T02:43:59.572Z,7.23
2023-05-18T02:44:59.700Z,6.53
2023-05-18T02:45:59.685Z,7.00
2023-05-18T02:46:59.634Z,6.88
2023-05-18T02:47:59.748Z,6.19
2023-05-18T02:48:59.714Z,6.66
2023-05-18T02:49:59.809Z,6.53
2023-05-18T02:50:59.767Z,6.65
2023-05-18T02:51:59.773Z,6.72
2023-05-18T02:52:59.857Z,6.13
2023-05-18T02:53:59.865Z,7.10
2023-05-18T02:54:59.858Z,8.13
2023-05-18T02:55:59.903Z,7.01
2023-05-18T02:56:59.915Z,6.66
2023-05-18T02:57:59.966Z,7.34
2023-05-18T02:59:00.761Z,7.96
2023-05-18T03:00:00.029Z,7.34
2023-05-18T03:01:00.151Z,8.45
2023-05-18T03:02:00.161Z,7.97
2023-05-18T03:03:00.259Z,8.08
2023-05-18T03:04:00.168Z,7.85
2023-05-18T03:05:00.223Z,8.80
2023-05-18T03:06:00.154Z,8.87
2023-05-18T03:07:00.169Z,8.32
2023-05-18T03:08:00.213Z,8.28
2023-05-18T03:09:00.180Z,8.47
2023-05-18T03:10:00.213Z,8.03
2023-05-18T03:11:00.268Z,8.34
2023-05-18T03:12:00.275Z,8.34
2023-05-18T03:13:00.340Z,8.23
2023-05-18T03:14:00.362Z,8.00
2023-05-18T03:15:00.368Z,8.79
2023-05-18T03:16:00.359Z,7.85
2023-05-18T03:17:00.494Z,7.74
2023-05-18T03:18:00.443Z,7.85
2023-05-18T03:19:00.472Z,7.93
2023-05-18T03:20:00.566Z,8.31
2023-05-18T03:21:00.566Z,7.71
2023-05-18T03:22:00.544Z,8.39
2023-05-18T03:23:00.574Z,7.99
2023-05-18T03:24:00.585Z,7.79
2023-05-18T03:25:00.669Z,8.62
2023-05-18T03:26:00.802Z,8.35
2023-05-18T03:27:00.741Z,7.94
2023-05-18T03:28:00.728Z,8.31
2023-05-18T03:29:00.764Z,7.52
2023-05-18T03:30:00.780Z,7.43
2023-05-18T03:31:00.834Z,7.63
2023-05-18T03:32:00.854Z,7.00
2023-05-18T03:33:00.902Z,7.33
2023-05-18T03:34:00.929Z,7.38
2023-05-18T03:35:01.012Z,7.28
2023-05-18T03:36:01.007Z,6.90
2023-05-18T03:37:01.046Z,7.49
2023-05-18T03:38:01.266Z,7.76
2023-05-18T03:39:01.128Z,8.90
2023-05-18T03:40:01.202Z,9.48
2023-05-18T03:41:01.223Z,7.90
2023-05-18T03:42:01.257Z,6.81
2023-05-18T03:43:01.301Z,9.49
2023-05-18T03:44:01.354Z,8.69
2023-05-18T03:45:01.391Z,8.73
2023-05-18T03:46:01.489Z,7.59
2023-05-18T03:47:01.510Z,8.89
2023-05-18T03:48:01.587Z,8.12
2023-05-18T03:49:01.561Z,7.71
2023-05-18T03:50:01.586Z,8.09
2023-05-18T03:51:01.617Z,8.20
2023-05-18T03:52:01.618Z,9.16
2023-05-18T03:53:01.645Z,8.68
2023-05-18T03:54:01.725Z,8.32
2023-05-18T03:55:02.235Z,8.23
2023-05-18T03:56:01.770Z,8.34
2023-05-18T03:57:01.819Z,7.78
2023-05-18T03:58:02.709Z,8.67
2023-05-18T03:59:01.873Z,8.86
2023-05-18T04:00:01.881Z,8.88
2023-05-18T04:01:01.923Z,7.84
2023-05-18T04:02:02.009Z,8.31
2023-05-18T04:03:02.070Z,7.77
2023-05-18T04:04:02.053Z,8.08
2023-05-18T04:05:02.045Z,8.22
2023-05-18T04:06:02.080Z,9.42
2023-05-18T04:07:02.129Z,9.01
2023-05-18T04:08:02.174Z,8.95
2023-05-18T04:09:02.192Z,8.46
2023-05-18T04:10:02.722Z,7.99
2023-05-18T04:11:02.235Z,8.82
2023-05-18T04:12:02.281Z,7.76
2023-05-18T04:13:02.335Z,7.83
2023-05-18T04:14:02.371Z,7.56
2023-05-18T04:15:02.723Z,7.91
2023-05-18T04:16:02.501Z,8.41
2023-05-18T04:17:02.529Z,7.93
2023-05-18T04:18:02.536Z,7.51
2023-05-18T04:19:02.576Z,8.02
2023-05-18T04:20:02.745Z,8.10
2023-05-18T04:21:02.538Z,8.72
2023-05-18T04:22:02.556Z,8.43
2023-05-18T04:23:02.630Z,7.87
2023-05-18T04:24:02.629Z,7.80
2023-05-18T04:25:03.240Z,8.32
2023-05-18T04:26:02.781Z,8.81
2023-05-18T04:27:02.729Z,9.26
2023-05-18T04:28:02.730Z,8.34
2023-05-18T04:29:02.828Z,8.55
2023-05-18T04:30:02.826Z,8.47
2023-05-18T04:31:02.877Z,7.73
2023-05-18T04:32:02.901Z,8.59
2023-05-18T04:33:02.903Z,8.32
2023-05-18T04:34:02.877Z,8.88
2023-05-18T04:35:02.934Z,8.12
2023-05-18T04:36:02.959Z,7.84
2023-05-18T04:37:02.962Z,9.31
2023-05-18T04:38:03.009Z,8.63
2023-05-18T04:39:03.015Z,7.84
2023-05-18T04:40:03.258Z,9.57
2023-05-18T04:41:03.131Z,8.49
2023-05-18T04:42:03.135Z,7.47
2023-05-18T04:43:03.149Z,9.06
2023-05-18T04:44:03.155Z,7.98
2023-05-18T04:45:03.219Z,8.48
2023-05-18T04:46:03.269Z,9.05
2023-05-18T04:47:03.310Z,8.34
2023-05-18T04:48:03.297Z,8.26
2023-05-18T04:49:03.326Z,8.17
2023-05-18T04:50:03.756Z,8.48
2023-05-18T04:51:03.420Z,8.57
2023-05-18T04:52:03.458Z,8.35
2023-05-18T04:53:03.464Z,9.09
2023-05-18T04:54:03.546Z,8.50
2023-05-18T04:55:03.744Z,8.63
2023-05-18T04:56:03.554Z,8.31
2023-05-18T04:57:03.615Z,9.11
2023-05-18T04:58:03.663Z,8.37
2023-05-18T04:59:03.659Z,8.68
2023-05-18T05:00:03.726Z,9.21
2023-05-18T05:01:03.756Z,8.47
2023-05-18T05:02:03.765Z,8.80
2023-05-18T05:03:03.845Z,7.39
2023-05-18T05:04:03.806Z,7.93
2023-05-18T05:05:04.228Z,8.73
2023-05-18T05:06:03.880Z,8.20
2023-05-18T05:07:03.868Z,8.60
2023-05-18T05:08:03.871Z,8.25
2023-05-18T05:09:03.934Z,8.15
2023-05-18T05:10:04.207Z,7.95
2023-05-18T05:11:03.947Z,7.64
2023-05-18T05:12:04.031Z,7.75
2023-05-18T05:13:03.954Z,7.74
2023-05-18T05:14:04.009Z,8.08
2023-05-18T05:15:04.000Z,8.22
2023-05-18T05:16:04.061Z,8.12
2023-05-18T05:17:04.044Z,7.99
2023-05-18T05:18:04.037Z,7.15
2023-05-18T05:19:04.173Z,8.74
2023-05-18T05:20:04.116Z,8.27
2023-05-18T05:21:04.109Z,8.62
2023-05-18T05:22:04.125Z,8.12
2023-05-18T05:23:04.144Z,7.67
2023-05-18T05:24:04.098Z,8.64
2023-05-18T05:25:06.087Z,7.98
2023-05-18T05:26:04.175Z,8.53
2023-05-18T05:27:04.165Z,7.78
2023-05-18T05:28:04.173Z,7.51
2023-05-18T05:29:04.167Z,6.64
2023-05-18T05:30:04.227Z,8.02
2023-05-18T05:31:04.211Z,8.01
2023-05-18T05:32:04.308Z,8.07
2023-05-18T05:33:04.252Z,8.21
2023-05-18T05:34:04.196Z,7.95
2023-05-18T05:35:04.263Z,7.04
2023-05-18T05:36:04.188Z,7.38
2023-05-18T05:37:04.223Z,7.65
2023-05-18T05:38:04.261Z,7.18
2023-05-18T05:39:04.201Z,7.12
2023-05-18T05:40:04.201Z,6.84
2023-05-18T05:41:04.212Z,7.21
2023-05-18T05:42:04.261Z,7.92
2023-05-18T05:43:04.260Z,7.16
2023-05-18T05:44:04.224Z,7.70
2023-05-18T05:45:04.748Z,7.69
2023-05-18T05:46:04.241Z,7.61
2023-05-18T05:47:04.351Z,7.89
2023-05-18T05:48:04.355Z,7.92
2023-05-18T05:49:04.308Z,7.33
2023-05-18T05:50:04.775Z,7.38
2023-05-18T05:51:04.349Z,7.63
2023-05-18T05:52:04.395Z,6.97
2023-05-18T05:53:04.475Z,7.39
2023-05-18T05:54:04.506Z,8.23
2023-05-18T05:55:04.681Z,7.78
2023-05-18T05:56:04.678Z,7.07
2023-05-18T05:57:04.709Z,8.08
2023-05-18T05:58:04.780Z,6.82
2023-05-18T05:59:04.845Z,6.96
2023-05-18T06:00:05.266Z,6.69
2023-05-18T06:01:05.005Z,6.71
2023-05-18T06:02:05.128Z,6.29
2023-05-18T06:03:05.177Z,6.87
2023-05-18T06:04:05.204Z,6.88
2023-05-18T06:05:05.736Z,7.37
2023-05-18T06:06:05.319Z,6.54
2023-05-18T06:07:05.355Z,6.26
2023-05-18T06:08:05.430Z,6.43
2023-05-18T06:09:05.524Z,6.45
2023-05-18T06:10:05.759Z,6.69
2023-05-18T06:11:05.613Z,6.98
2023-05-18T06:12:05.693Z,6.06
2023-05-18T06:13:05.756Z,6.22
2023-05-18T06:14:05.822Z,6.64
2023-05-18T06:15:06.240Z,6.52
2023-05-18T06:16:06.010Z,6.20
2023-05-18T06:17:06.205Z,6.46
2023-05-18T06:18:06.152Z,5.97
2023-05-18T06:19:06.217Z,6.05
2023-05-18T06:20:06.237Z,6.05
2023-05-18T06:21:06.265Z,7.01
2023-05-18T06:22:06.292Z,7.20
2023-05-18T06:23:06.403Z,7.31
2023-05-18T06:24:06.380Z,7.04
2023-05-18T06:25:06.500Z,6.26
2023-05-18T06:26:06.539Z,6.62
2023-05-18T06:27:07.274Z,7.36
2023-05-18T06:28:06.622Z,6.97
2023-05-18T06:29:06.664Z,7.10
2023-05-18T06:30:06.696Z,7.67
2023-05-18T06:31:06.742Z,6.86
2023-05-18T06:32:06.775Z,7.55
2023-05-18T06:33:06.938Z,7.19
2023-05-18T06:34:06.890Z,6.09
2023-05-18T06:35:07.297Z,6.38
2023-05-18T06:36:07.053Z,6.83
2023-05-18T06:37:07.060Z,6.59
2023-05-18T06:38:07.062Z,7.61
2023-05-18T06:39:07.140Z,6.90
2023-05-18T06:40:07.106Z,7.24
2023-05-18T06:41:07.115Z,6.19
2023-05-18T06:42:07.177Z,7.60
2023-05-18T06:43:07.185Z,7.17
2023-05-18T06:44:07.222Z,6.41
2023-05-18T06:45:07.255Z,7.04
2023-05-18T06:46:07.304Z,6.00
2023-05-18T06:47:07.262Z,7.41
2023-05-18T06:48:07.299Z,6.45
2023-05-18T06:49:07.324Z,6.72
2023-05-18T06:50:07.316Z,7.70
2023-05-18T06:51:07.350Z,7.37
2023-05-18T06:52:07.351Z,7.21
2023-05-18T06:53:07.382Z,6.95
2023-05-18T06:54:07.407Z,6.31
2023-05-18T06:55:07.459Z,7.33
2023-05-18T06:56:07.428Z,7.07
2023-05-18T06:57:07.429Z,6.92
2023-05-18T06:58:07.563Z,6.33
2023-05-18T06:59:07.497Z,6.13
2023-05-18T07:00:07.504Z,6.79
2023-05-18T07:01:07.536Z,6.88
2023-05-18T07:02:07.513Z,7.44
2023-05-18T07:03:07.734Z,6.62
2023-05-18T07:04:07.700Z,7.70
2023-05-18T07:05:07.555Z,6.44
2023-05-18T07:06:07.550Z,6.84
2023-05-18T07:07:07.606Z,7.15
2023-05-18T07:08:07.721Z,7.37
2023-05-18T07:09:07.659Z,6.72
2023-05-18T07:10:07.620Z,7.77
2023-05-18T07:11:07.594Z,7.14
2023-05-18T07:12:07.575Z,6.65
2023-05-18T07:13:07.590Z,6.48
2023-05-18T07:14:07.581Z,6.96
2023-05-18T07:15:07.856Z,7.27
2023-05-18T07:16:07.772Z,6.93
2023-05-18T07:17:07.729Z,6.73
2023-05-18T07:18:07.882Z,6.40
2023-05-18T07:19:07.770Z,6.18
2023-05-18T07:20:07.826Z,6.83
2023-05-18T07:21:07.862Z,6.94
2023-05-18T07:22:07.926Z,7.77
2023-05-18T07:23:07.998Z,7.21
2023-05-18T07:24:07.932Z,7.32
2023-05-18T07:25:07.930Z,7.46
2023-05-18T07:26:07.892Z,6.84
2023-05-18T07:27:07.872Z,6.65
2023-05-18T07:28:08.001Z,7.31
2023-05-18T07:29:07.982Z,6.18
2023-05-18T07:30:08.084Z,6.50
2023-05-18T07:31:08.091Z,7.21
2023-05-18T07:32:08.128Z,5.72
2023-05-18T07:33:08.219Z,6.79
2023-05-18T07:34:08.250Z,6.72
2023-05-18T07:35:08.317Z,6.45
2023-05-18T07:36:08.361Z,6.89
2023-05-18T07:37:08.439Z,6.77
2023-05-18T07:38:08.484Z,7.11
2023-05-18T07:39:08.542Z,6.28
2023-05-18T07:40:08.863Z,6.74
2023-05-18T07:41:08.665Z,6.98
2023-05-18T07:42:08.780Z,6.72
2023-05-18T07:43:08.824Z,6.77
2023-05-18T07:44:08.840Z,5.82
2023-05-18T07:45:09.283Z,6.76
2023-05-18T07:46:09.032Z,6.40
2023-05-18T07:47:09.231Z,7.08
2023-05-18T07:48:09.217Z,7.08
2023-05-18T07:49:09.126Z,6.64
2023-05-18T07:50:09.257Z,5.57
2023-05-18T07:51:09.244Z,6.90
2023-05-18T07:52:09.338Z,6.43
2023-05-18T07:53:09.354Z,6.64
2023-05-18T07:54:09.322Z,5.62
2023-05-18T07:55:09.817Z,5.52
2023-05-18T07:56:09.398Z,6.35
2023-05-18T07:57:09.397Z,5.65
2023-05-18T07:58:09.522Z,6.25
2023-05-18T07:59:09.415Z,6.48
2023-05-18T08:00:09.413Z,5.23
2023-05-18T08:01:09.453Z,6.41
2023-05-18T08:02:09.481Z,6.05
2023-05-18T08:03:09.571Z,5.32
2023-05-18T08:04:09.680Z,5.71
2023-05-18T08:05:09.534Z,4.96
2023-05-18T08:06:09.612Z,5.15
2023-05-18T08:07:09.512Z,5.47
2023-05-18T08:08:09.527Z,5.36
2023-05-18T08:09:09.542Z,5.24
2023-05-18T08:10:09.579Z,5.72
2023-05-18T08:11:09.537Z,5.89
2023-05-18T08:12:09.516Z,6.44
2023-05-18T08:13:09.561Z,5.62
2023-05-18T08:14:09.544Z,5.56
2023-05-18T08:15:09.601Z,5.09
2023-05-18T08:16:12.316Z,5.34
2023-05-18T08:17:09.749Z,5.39
2023-05-18T08:18:09.720Z,5.06
2023-05-18T08:19:09.692Z,5.59
2023-05-18T08:20:09.709Z,5.27
2023-05-18T08:21:09.881Z,5.19
2023-05-18T08:22:09.653Z,5.16
2023-05-18T08:23:09.576Z,5.53
2023-05-18T08:24:09.594Z,5.39
2023-05-18T08:25:09.618Z,4.96
2023-05-18T08:26:10.947Z,5.13
2023-05-18T08:27:09.567Z,4.85
2023-05-18T08:28:09.586Z,5.64
2023-05-18T08:29:09.617Z,5.67
2023-05-18T08:30:09.605Z,4.96
2023-05-18T08:31:09.598Z,5.56
2023-05-18T08:32:09.750Z,5.17
2023-05-18T08:33:09.724Z,5.01
2023-05-18T08:34:09.685Z,5.78
2023-05-18T08:35:09.730Z,5.78
2023-05-18T08:36:09.760Z,5.45
2023-05-18T08:37:09.761Z,5.71
2023-05-18T08:38:09.824Z,5.22
2023-05-18T08:39:19.857Z,5.11
2023-05-18T08:40:19.859Z,5.02
2023-05-18T08:41:24.387Z,4.86
2023-05-18T08:42:20.032Z,5.13
2023-05-18T08:44:40.416Z,5.56
2023-05-18T08:45:40.442Z,5.57
2023-05-18T08:46:40.485Z,4.79
2023-05-18T08:47:30.198Z,5.25
2023-05-18T08:48:30.306Z,5.31
2023-05-18T08:49:43.732Z,4.39
2023-05-18T08:50:40.479Z,4.92
2023-05-18T08:52:50.294Z,4.44
2023-05-18T08:53:50.368Z,4.46
2023-05-18T08:54:50.269Z,5.12
2023-05-18T08:55:50.528Z,5.59
2023-05-18T08:56:50.265Z,5.68
2023-05-18T08:57:50.275Z,5.73
2023-05-18T08:58:50.272Z,5.33
2023-05-18T08:59:50.296Z,5.11
2023-05-18T09:00:50.259Z,5.62
2023-05-18T09:01:50.269Z,4.93
2023-05-18T09:02:50.311Z,5.40
2023-05-18T09:03:50.207Z,6.43
2023-05-18T09:04:50.230Z,4.71
2023-05-18T09:05:50.497Z,5.44
2023-05-18T09:06:50.196Z,4.14
2023-05-18T09:07:50.278Z,5.22
2023-05-18T09:08:50.184Z,4.48
2023-05-18T09:09:50.166Z,4.96
2023-05-18T09:10:50.482Z,4.33
2023-05-18T09:11:50.190Z,4.32
2023-05-18T09:12:50.122Z,4.62
2023-05-18T09:13:50.150Z,5.37
2023-05-18T09:14:50.129Z,4.83
2023-05-18T09:15:50.500Z,4.27
2023-05-18T09:16:50.205Z,5.23
2023-05-18T09:17:50.183Z,5.12
2023-05-18T09:18:50.189Z,4.57
2023-05-18T09:19:50.234Z,4.94
2023-05-18T09:20:50.494Z,4.87
2023-05-18T09:21:50.194Z,4.84
2023-05-18T09:22:50.256Z,4.63
2023-05-18T09:23:50.330Z,4.46
2023-05-18T09:24:50.426Z,4.37
2023-05-18T09:25:50.507Z,4.34
2023-05-18T09:26:50.435Z,4.36
2023-05-18T09:27:50.479Z,4.37
2023-05-18T09:28:50.486Z,4.16
2023-05-18T09:29:50.505Z,5.14
2023-05-18T09:30:50.473Z,3.89
2023-05-18T09:31:50.472Z,4.63
2023-05-18T09:32:50.585Z,4.48
2023-05-18T09:33:50.565Z,4.09
2023-05-18T09:34:50.538Z,3.73
2023-05-18T09:35:50.631Z,4.12
2023-05-18T09:36:50.660Z,4.21
2023-05-18T09:37:50.673Z,4.03
2023-05-18T09:38:50.831Z,4.68
2023-05-18T09:39:50.873Z,4.01
2023-05-18T09:40:51.036Z,4.39
2023-05-18T09:41:51.045Z,3.80
2023-05-18T09:42:51.100Z,4.17
2023-05-18T09:43:51.193Z,3.87
2023-05-18T09:44:51.321Z,4.31
2023-05-18T09:45:51.340Z,4.01
2023-05-18T09:46:51.433Z,3.83
2023-05-18T09:47:51.655Z,3.75
2023-05-18T09:48:51.527Z,3.91
2023-05-18T09:49:51.560Z,3.55
2023-05-18T09:50:52.039Z,3.59
2023-05-18T09:51:51.767Z,4.63
2023-05-18T09:52:51.748Z,4.17
2023-05-18T09:53:51.790Z,5.32
2023-05-18T09:54:51.814Z,5.00
2023-05-18T09:55:52.010Z,4.36
2023-05-18T09:57:08.407Z,4.59
2023-05-18T09:57:52.940Z,4.10
2023-05-18T09:58:51.922Z,4.00
2023-05-18T09:59:52.015Z,4.17
2023-05-18T10:00:52.124Z,4.81
2023-05-18T10:01:51.900Z,4.71
2023-05-18T10:02:51.887Z,4.83
2023-05-18T10:03:52.047Z,4.79
2023-05-18T10:04:52.029Z,4.10
2023-05-18T10:05:52.032Z,4.66
2023-05-18T10:06:52.049Z,4.84
2023-05-18T10:07:52.162Z,5.05
2023-05-18T10:08:52.177Z,5.02
2023-05-18T10:09:52.208Z,4.72
2023-05-18T10:10:52.277Z,4.67
2023-05-18T10:11:52.315Z,4.48
2023-05-18T10:12:52.394Z,4.73
2023-05-18T10:13:52.434Z,4.48
2023-05-18T10:14:52.448Z,4.91
2023-05-18T10:15:52.532Z,4.88
2023-05-18T10:17:00.348Z,5.05
2023-05-18T10:17:53.641Z,4.76
2023-05-18T10:18:52.590Z,4.49
2023-05-18T10:19:52.526Z,4.98
2023-05-18T10:20:52.544Z,4.84
2023-05-18T10:21:52.502Z,4.32
2023-05-18T10:22:52.502Z,4.50
2023-05-18T10:23:52.452Z,4.14
2023-05-18T10:24:52.468Z,4.47
2023-05-18T10:25:52.465Z,4.45
2023-05-18T10:26:54.081Z,5.18
2023-05-18T10:27:52.484Z,3.79
2023-05-18T10:28:52.485Z,4.55
2023-05-18T10:29:52.694Z,4.96
2023-05-18T10:30:52.494Z,3.75
2023-05-18T10:31:52.457Z,3.72
2023-05-18T10:32:52.575Z,3.84
2023-05-18T10:33:52.439Z,3.55
2023-05-18T10:34:52.429Z,4.15
2023-05-18T10:35:52.439Z,3.68
2023-05-18T10:36:52.443Z,4.13
2023-05-18T10:37:52.403Z,3.81
2023-05-18T10:38:52.406Z,3.35
2023-05-18T10:39:52.416Z,2.92
2023-05-18T10:40:52.371Z,3.47
2023-05-18T10:41:52.372Z,2.90
2023-05-18T10:42:52.378Z,3.31
2023-05-18T10:43:52.352Z,2.96
2023-05-18T10:44:52.333Z,3.31
2023-05-18T10:45:52.360Z,3.36
2023-05-18T10:46:52.534Z,3.32
2023-05-18T10:47:52.444Z,3.08
2023-05-18T10:48:52.320Z,3.53
2023-05-18T10:49:52.329Z,3.59
2023-05-18T10:50:52.351Z,3.19
2023-05-18T10:51:52.348Z,3.25
2023-05-18T10:52:52.291Z,3.42
2023-05-18T10:53:54.484Z,2.98
2023-05-18T10:54:52.309Z,3.25
2023-05-18T10:55:52.526Z,3.03
2023-05-18T10:56:52.269Z,3.53
2023-05-18T10:57:52.276Z,2.52
2023-05-18T10:58:52.281Z,2.84
2023-05-18T10:59:52.250Z,2.83
2023-05-18T11:00:52.320Z,3.43
2023-05-18T11:01:52.349Z,2.87
2023-05-18T11:02:52.283Z,2.56
2023-05-18T11:03:52.277Z,3.52
2023-05-18T11:04:54.172Z,3.25
2023-05-18T11:05:52.298Z,2.92
2023-05-18T11:06:52.192Z,3.62
2023-05-18T11:07:52.197Z,4.46
2023-05-18T11:08:52.249Z,3.74
2023-05-18T11:09:52.212Z,3.28
2023-05-18T11:10:52.588Z,3.61
2023-05-18T11:11:52.167Z,3.44
2023-05-18T11:12:52.171Z,3.21
2023-05-18T11:13:52.205Z,3.25
2023-05-18T11:14:52.133Z,2.98
2023-05-18T11:15:52.580Z,2.92
2023-05-18T11:16:52.269Z,3.27
2023-05-18T11:17:52.172Z,3.33
2023-05-18T11:18:52.260Z,2.65
2023-05-18T11:19:52.323Z,2.64
2023-05-18T11:20:52.173Z,2.61
2023-05-18T11:21:52.204Z,2.75
2023-05-18T11:22:52.189Z,2.59
2023-05-18T11:23:52.200Z,2.28
2023-05-18T11:24:52.295Z,2.00
2023-05-18T11:25:52.244Z,2.46
2023-05-18T11:26:52.279Z,2.29
2023-05-18T11:27:52.321Z,2.48
2023-05-18T11:28:52.350Z,2.60
2023-05-18T11:30:03.873Z,3.14
2023-05-18T11:30:53.434Z,2.72
2023-05-18T11:31:52.447Z,1.80
2023-05-18T11:32:52.516Z,2.10
2023-05-18T11:33:52.381Z,2.08
2023-05-18T11:34:52.428Z,2.40
2023-05-18T11:35:52.390Z,1.99
2023-05-18T11:36:52.342Z,2.36
2023-05-18T11:37:52.350Z,2.21
2023-05-18T11:38:52.331Z,2.38
2023-05-18T11:39:59.366Z,2.11
2023-05-18T11:40:53.653Z,2.47
2023-05-18T11:41:52.526Z,2.56
2023-05-18T11:42:52.333Z,2.99
2023-05-18T11:43:52.382Z,2.41
2023-05-18T11:44:52.302Z,2.15
2023-05-18T11:45:52.567Z,2.08
2023-05-18T11:46:52.320Z,2.38
2023-05-18T11:47:52.360Z,2.24
2023-05-18T11:48:52.359Z,2.91
2023-05-18T11:49:52.279Z,2.16
2023-05-18T11:50:52.297Z,2.38
2023-05-18T11:51:52.259Z,1.99
2023-05-18T11:52:52.245Z,2.35
2023-05-18T11:53:52.250Z,2.16
2023-05-18T11:54:52.311Z,2.47
2023-05-18T11:55:52.261Z,2.84
2023-05-18T11:56:52.222Z,2.91
2023-05-18T11:57:52.530Z,2.52
2023-05-18T11:58:52.422Z,2.57
2023-05-18T11:59:52.397Z,2.50
2023-05-18T12:00:52.455Z,2.15
2023-05-18T12:01:52.483Z,2.28
2023-05-18T12:02:52.930Z,3.00
2023-05-18T12:03:52.582Z,2.33
2023-05-18T12:04:52.572Z,1.79
2023-05-18T12:05:52.629Z,2.07
2023-05-18T12:06:52.598Z,2.76
2023-05-18T12:07:52.603Z,2.38
2023-05-18T12:08:52.683Z,3.13
2023-05-18T12:09:52.610Z,2.52
2023-05-18T12:10:52.692Z,2.46
2023-05-18T12:11:52.658Z,2.36
2023-05-18T12:12:52.690Z,2.38
2023-05-18T12:13:52.692Z,2.79
2023-05-18T12:14:52.720Z,2.86
2023-05-18T12:15:52.760Z,2.55
2023-05-18T12:16:52.746Z,2.64
2023-05-18T12:17:52.821Z,2.61
2023-05-18T12:18:53.585Z,2.22
2023-05-18T12:19:52.883Z,2.38
2023-05-18T12:20:53.075Z,2.35
2023-05-18T12:21:53.019Z,2.84
2023-05-18T12:22:53.082Z,3.04
2023-05-18T12:23:53.106Z,2.34
2023-05-18T12:24:53.174Z,2.67
2023-05-18T12:25:53.263Z,2.12
2023-05-18T12:26:53.214Z,2.26
2023-05-18T12:27:53.248Z,2.89
2023-05-18T12:28:53.355Z,2.92
2023-05-18T12:29:53.397Z,2.29
2023-05-18T12:30:53.477Z,2.16
2023-05-18T12:31:54.061Z,2.56
2023-05-18T12:32:53.646Z,2.02
2023-05-18T12:33:56.076Z,2.59
2023-05-18T12:34:53.606Z,2.39
2023-05-18T12:35:53.569Z,2.10
2023-05-18T12:36:53.565Z,2.23
2023-05-18T12:37:53.563Z,2.36
2023-05-18T12:38:53.575Z,2.18
2023-05-18T12:39:53.589Z,3.05
2023-05-18T12:40:53.581Z,2.70
2023-05-18T12:41:53.549Z,2.52
2023-05-18T12:42:53.585Z,2.71
2023-05-18T12:43:53.559Z,2.56
2023-05-18T12:44:53.509Z,2.49
2023-05-18T12:45:53.564Z,2.75
2023-05-18T12:46:53.632Z,2.69
2023-05-18T12:47:53.864Z,2.21
2023-05-18T12:48:53.570Z,2.02
2023-05-18T12:49:53.555Z,2.07
2023-05-18T12:50:53.567Z,2.17
2023-05-18T12:51:53.488Z,2.15
2023-05-18T12:52:53.481Z,2.47
2023-05-18T12:53:53.504Z,2.72
2023-05-18T12:54:53.476Z,2.70
2023-05-18T12:55:53.483Z,2.40
2023-05-18T12:56:53.453Z,2.11
2023-05-18T12:57:53.440Z,1.98
2023-05-18T12:58:53.454Z,2.76
2023-05-18T12:59:53.421Z,2.73
2023-05-18T13:01:08.698Z,2.64
2023-05-18T13:01:53.699Z,2.69
2023-05-18T13:02:53.510Z,2.20
2023-05-18T13:03:53.498Z,2.57
2023-05-18T13:04:53.426Z,2.27
2023-05-18T13:05:53.622Z,2.38
2023-05-18T13:06:53.409Z,3.07
2023-05-18T13:07:53.384Z,2.75
2023-05-18T13:08:53.381Z,2.11
2023-05-18T13:09:53.373Z,2.82
2023-05-18T13:11:09.029Z,2.74
2023-05-18T13:12:06.051Z,2.34
2023-05-18T13:12:54.355Z,1.93
2023-05-18T13:13:53.389Z,2.73
2023-05-18T13:14:53.349Z,3.06
2023-05-18T13:15:53.605Z,2.26
2023-05-18T13:16:53.372Z,2.26
2023-05-18T13:17:53.370Z,2.15
2023-05-18T13:18:53.392Z,2.23
2023-05-18T13:19:53.335Z,2.85
2023-05-18T13:20:53.636Z,2.39
2023-05-18T13:21:53.321Z,2.82